sensor_id;sensor_type;location;lat;lon;timestamp;pressure;altitude;pressure_sealevel;temperature;humidity
2401;BME280;1211;43.200;27.914;2023-04-20T00:02:14;100614.84;;;16.45;100.00
2401;BME280;1211;43.200;27.914;2023-04-20T00:04:41;100613.38;;;16.52;100.00
2401;BME280;1211;43.200;27.914;2023-04-20T00:07:07;100612.34;;;16.60;100.00
2401;BME280;1211;43.200;27.914;2023-04-20T00:09:34;100613.25;;;16.44;100.00
2401;BME280;1211;43.200;27.914;2023-04-20T00:12:01;100604.34;;;16.58;100.00
2401;BME280;1211;43.200;27.914;2023-04-20T00:14:27;100608.94;;;16.47;100.00
2401;BME280;1211;43.200;27.914;2023-04-20T00:16:55;100613.78;;;16.54;100.00
2401;BME280;1211;43.200;27.914;2023-04-20T00:19:22;100610.97;;;16.08;100.00
2401;BME280;1211;43.200;27.914;2023-04-20T00:21:50;100611.13;;;16.38;100.00
2401;BME280;1211;43.200;27.914;2023-04-20T00:24:17;100604.91;;;16.44;100.00
2401;BME280;1211;43.200;27.914;2023-04-20T00:26:43;100607.38;;;16.49;100.00
2401;BME280;1211;43.200;27.914;2023-04-20T00:29:10;100611.66;;;16.24;100.00
2401;BME280;1211;43.200;27.914;2023-04-20T00:31:37;100609.19;;;16.19;100.00
2401;BME280;1211;43.200;27.914;2023-04-20T00:34:05;100607.41;;;16.30;100.00
2401;BME280;1211;43.200;27.914;2023-04-20T00:36:31;100613.59;;;16.43;100.00
2401;BME280;1211;43.200;27.914;2023-04-20T00:38:58;100601.81;;;16.49;100.00
2401;BME280;1211;43.200;27.914;2023-04-20T00:41:25;100603.09;;;16.33;100.00
2401;BME280;1211;43.200;27.914;2023-04-20T00:43:52;100606.69;;;16.33;100.00
2401;BME280;1211;43.200;27.914;2023-04-20T00:46:19;100602.09;;;16.22;100.00
2401;BME280;1211;43.200;27.914;2023-04-20T00:48:46;100598.69;;;16.09;100.00
2401;BME280;1211;43.200;27.914;2023-04-20T00:51:14;100596.03;;;16.16;100.00
2401;BME280;1211;43.200;27.914;2023-04-20T00:53:41;100591.50;;;16.08;100.00
2401;BME280;1211;43.200;27.914;2023-04-20T00:56:08;100601.91;;;16.11;100.00
2401;BME280;1211;43.200;27.914;2023-04-20T00:58:34;100595.47;;;16.07;100.00
2401;BME280;1211;43.200;27.914;2023-04-20T01:01:01;100589.31;;;16.17;100.00
2401;BME280;1211;43.200;27.914;2023-04-20T01:03:28;100586.66;;;16.24;100.00
2401;BME280;1211;43.200;27.914;2023-04-20T01:05:54;100587.94;;;16.30;100.00
2401;BME280;1211;43.200;27.914;2023-04-20T01:08:25;100587.16;;;16.30;100.00
2401;BME280;1211;43.200;27.914;2023-04-20T01:10:52;100588.84;;;16.34;100.00
2401;BME280;1211;43.200;27.914;2023-04-20T01:13:19;100591.94;;;16.29;100.00
2401;BME280;1211;43.200;27.914;2023-04-20T01:15:46;100581.50;;;16.03;100.00
2401;BME280;1211;43.200;27.914;2023-04-20T01:18:12;100586.22;;;16.22;100.00
2401;BME280;1211;43.200;27.914;2023-04-20T01:20:39;100587.56;;;16.09;100.00
2401;BME280;1211;43.200;27.914;2023-04-20T01:23:07;100582.38;;;16.07;100.00
2401;BME280;1211;43.200;27.914;2023-04-20T01:25:34;100583.47;;;16.03;100.00
2401;BME280;1211;43.200;27.914;2023-04-20T01:28:01;100590.03;;;16.14;100.00
2401;BME280;1211;43.200;27.914;2023-04-20T01:30:29;100587.34;;;16.18;100.00
2401;BME280;1211;43.200;27.914;2023-04-20T01:32:55;100584.44;;;16.11;100.00
2401;BME280;1211;43.200;27.914;2023-04-20T01:35:22;100588.75;;;16.08;100.00
2401;BME280;1211;43.200;27.914;2023-04-20T01:37:49;100585.75;;;15.78;100.00
2401;BME280;1211;43.200;27.914;2023-04-20T01:40:17;100586.72;;;16.05;100.00
2401;BME280;1211;43.200;27.914;2023-04-20T01:42:44;100589.34;;;15.98;100.00
2401;BME280;1211;43.200;27.914;2023-04-20T01:45:10;100584.28;;;16.03;100.00
2401;BME280;1211;43.200;27.914;2023-04-20T01:47:37;100587.16;;;15.88;100.00
2401;BME280;1211;43.200;27.914;2023-04-20T01:50:04;100582.22;;;15.78;100.00
2401;BME280;1211;43.200;27.914;2023-04-20T01:52:31;100580.59;;;15.77;100.00
2401;BME280;1211;43.200;27.914;2023-04-20T01:54:57;100582.00;;;16.09;100.00
2401;BME280;1211;43.200;27.914;2023-04-20T01:57:25;100583.34;;;15.96;100.00
2401;BME280;1211;43.200;27.914;2023-04-20T01:59:52;100587.50;;;16.05;100.00
2401;BME280;1211;43.200;27.914;2023-04-20T02:02:18;100592.06;;;15.94;100.00
2401;BME280;1211;43.200;27.914;2023-04-20T02:04:45;100599.16;;;15.73;100.00
2401;BME280;1211;43.200;27.914;2023-04-20T02:07:12;100597.91;;;15.70;100.00
2401;BME280;1211;43.200;27.914;2023-04-20T02:09:38;100598.56;;;15.83;100.00
2401;BME280;1211;43.200;27.914;2023-04-20T02:12:05;100605.16;;;15.94;100.00
2401;BME280;1211;43.200;27.914;2023-04-20T02:14:33;100602.50;;;16.01;100.00
2401;BME280;1211;43.200;27.914;2023-04-20T02:17:00;100598.06;;;16.19;100.00
2401;BME280;1211;43.200;27.914;2023-04-20T02:19:27;100591.00;;;16.22;100.00
2401;BME280;1211;43.200;27.914;2023-04-20T02:21:53;100601.00;;;16.07;100.00
2401;BME280;1211;43.200;27.914;2023-04-20T02:24:20;100605.88;;;15.72;100.00
2401;BME280;1211;43.200;27.914;2023-04-20T02:26:47;100598.19;;;15.84;100.00
2401;BME280;1211;43.200;27.914;2023-04-20T02:29:13;100601.19;;;15.76;100.00
2401;BME280;1211;43.200;27.914;2023-04-20T02:31:41;100594.78;;;15.72;100.00
2401;BME280;1211;43.200;27.914;2023-04-20T02:34:08;100587.53;;;15.67;100.00
2401;BME280;1211;43.200;27.914;2023-04-20T02:36:35;100585.75;;;15.97;100.00
2401;BME280;1211;43.200;27.914;2023-04-20T02:39:01;100584.22;;;16.00;100.00
2401;BME280;1211;43.200;27.914;2023-04-20T02:41:28;100594.25;;;15.85;100.00
2401;BME280;1211;43.200;27.914;2023-04-20T02:43:55;100583.06;;;15.82;100.00
2401;BME280;1211;43.200;27.914;2023-04-20T02:46:21;100589.13;;;15.87;100.00
2401;BME280;1211;43.200;27.914;2023-04-20T02:48:49;100584.09;;;15.93;100.00
2401;BME280;1211;43.200;27.914;2023-04-20T02:51:16;100591.13;;;15.87;100.00
2401;BME280;1211;43.200;27.914;2023-04-20T02:53:43;100589.13;;;15.87;100.00
2401;BME280;1211;43.200;27.914;2023-04-20T02:56:09;100580.72;;;15.84;100.00
2401;BME280;1211;43.200;27.914;2023-04-20T02:58:36;100578.25;;;15.79;100.00
2401;BME280;1211;43.200;27.914;2023-04-20T03:01:03;100580.88;;;15.91;100.00
2401;BME280;1211;43.200;27.914;2023-04-20T03:03:30;100583.88;;;15.63;100.00
2401;BME280;1211;43.200;27.914;2023-04-20T03:05:58;100578.53;;;15.74;100.00
2401;BME280;1211;43.200;27.914;2023-04-20T03:08:25;100584.09;;;15.74;100.00
2401;BME280;1211;43.200;27.914;2023-04-20T03:10:51;100575.16;;;15.84;100.00
2401;BME280;1211;43.200;27.914;2023-04-20T03:13:18;100577.31;;;15.71;100.00
2401;BME280;1211;43.200;27.914;2023-04-20T03:15:45;100574.91;;;15.70;100.00
2401;BME280;1211;43.200;27.914;2023-04-20T03:18:11;100575.09;;;15.80;100.00
2401;BME280;1211;43.200;27.914;2023-04-20T03:20:38;100585.41;;;15.80;100.00
2401;BME280;1211;43.200;27.914;2023-04-20T03:23:07;100575.84;;;15.77;100.00
2401;BME280;1211;43.200;27.914;2023-04-20T03:25:34;100580.72;;;15.84;100.00
2401;BME280;1211;43.200;27.914;2023-04-20T03:28:01;100576.75;;;16.04;100.00
2401;BME280;1211;43.200;27.914;2023-04-20T03:30:27;100581.81;;;15.98;100.00
2401;BME280;1211;43.200;27.914;2023-04-20T03:32:54;100575.53;;;16.24;100.00
2401;BME280;1211;43.200;27.914;2023-04-20T03:35:21;100569.44;;;16.38;100.00
2401;BME280;1211;43.200;27.914;2023-04-20T03:37:47;100567.63;;;16.49;100.00
2401;BME280;1211;43.200;27.914;2023-04-20T03:40:18;100572.16;;;16.34;100.00
2401;BME280;1211;43.200;27.914;2023-04-20T03:42:45;100569.69;;;16.29;100.00
2401;BME280;1211;43.200;27.914;2023-04-20T03:45:12;100571.84;;;16.39;100.00
2401;BME280;1211;43.200;27.914;2023-04-20T03:47:39;100576.03;;;16.30;100.00
2401;BME280;1211;43.200;27.914;2023-04-20T03:50:06;100575.47;;;16.43;100.00
2401;BME280;1211;43.200;27.914;2023-04-20T03:52:32;100577.09;;;16.44;100.00
2401;BME280;1211;43.200;27.914;2023-04-20T03:54:59;100576.78;;;16.49;100.00
2401;BME280;1211;43.200;27.914;2023-04-20T03:57:27;100572.41;;;16.48;100.00
2401;BME280;1211;43.200;27.914;2023-04-20T03:59:54;100588.28;;;16.71;100.00
2401;BME280;1211;43.200;27.914;2023-04-20T04:02:21;100583.44;;;16.64;100.00
2401;BME280;1211;43.200;27.914;2023-04-20T04:04:47;100586.97;;;16.87;100.00
2401;BME280;1211;43.200;27.914;2023-04-20T04:07:14;100579.94;;;16.71;100.00
2401;BME280;1211;43.200;27.914;2023-04-20T04:09:40;100579.22;;;16.74;100.00
2401;BME280;1211;43.200;27.914;2023-04-20T04:12:07;100579.53;;;16.95;100.00
2401;BME280;1211;43.200;27.914;2023-04-20T04:14:35;100586.28;;;17.20;100.00
2401;BME280;1211;43.200;27.914;2023-04-20T04:17:02;100581.41;;;17.14;100.00
2401;BME280;1211;43.200;27.914;2023-04-20T04:19:28;100588.84;;;17.33;100.00
2401;BME280;1211;43.200;27.914;2023-04-20T04:21:55;100589.38;;;17.72;100.00
2401;BME280;1211;43.200;27.914;2023-04-20T04:24:22;100584.75;;;17.86;100.00
2401;BME280;1211;43.200;27.914;2023-04-20T04:26:48;100583.41;;;18.06;100.00
2401;BME280;1211;43.200;27.914;2023-04-20T04:29:15;100583.38;;;18.43;100.00
2401;BME280;1211;43.200;27.914;2023-04-20T04:31:43;100578.94;;;18.79;100.00
2401;BME280;1211;43.200;27.914;2023-04-20T04:34:09;100588.75;;;18.59;100.00
2401;BME280;1211;43.200;27.914;2023-04-20T04:36:36;100586.41;;;18.68;100.00
2401;BME280;1211;43.200;27.914;2023-04-20T04:39:03;100594.91;;;18.82;100.00
2401;BME280;1211;43.200;27.914;2023-04-20T04:41:29;100591.75;;;18.87;100.00
2401;BME280;1211;43.200;27.914;2023-04-20T04:43:56;100597.75;;;18.89;100.00
2401;BME280;1211;43.200;27.914;2023-04-20T04:46:23;100585.25;;;19.31;100.00
2401;BME280;1211;43.200;27.914;2023-04-20T04:48:53;100598.25;;;19.67;100.00
2401;BME280;1211;43.200;27.914;2023-04-20T04:51:20;100596.63;;;19.59;100.00
2401;BME280;1211;43.200;27.914;2023-04-20T04:53:47;100594.44;;;19.35;100.00
2401;BME280;1211;43.200;27.914;2023-04-20T04:56:13;100594.25;;;19.65;100.00
2401;BME280;1211;43.200;27.914;2023-04-20T04:58:42;100598.84;;;19.36;100.00
2401;BME280;1211;43.200;27.914;2023-04-20T05:01:09;100604.16;;;18.93;100.00
2401;BME280;1211;43.200;27.914;2023-04-20T05:03:36;100603.19;;;17.94;100.00
2401;BME280;1211;43.200;27.914;2023-04-20T05:06:04;100605.16;;;17.60;100.00
2401;BME280;1211;43.200;27.914;2023-04-20T05:08:31;100606.31;;;17.89;100.00
2401;BME280;1211;43.200;27.914;2023-04-20T05:10:58;100609.44;;;18.21;100.00
2401;BME280;1211;43.200;27.914;2023-04-20T05:13:25;100608.16;;;18.92;100.00
2401;BME280;1211;43.200;27.914;2023-04-20T05:15:51;100617.16;;;19.23;100.00
2401;BME280;1211;43.200;27.914;2023-04-20T05:18:18;100606.69;;;19.13;100.00
2401;BME280;1211;43.200;27.914;2023-04-20T05:20:45;100612.47;;;18.86;100.00
2401;BME280;1211;43.200;27.914;2023-04-20T05:23:13;100610.81;;;19.33;100.00
2401;BME280;1211;43.200;27.914;2023-04-20T05:25:39;100617.34;;;19.51;100.00
2401;BME280;1211;43.200;27.914;2023-04-20T05:28:06;100611.16;;;18.70;100.00
2401;BME280;1211;43.200;27.914;2023-04-20T05:30:32;100622.47;;;18.47;100.00
2401;BME280;1211;43.200;27.914;2023-04-20T05:32:59;100615.94;;;18.73;100.00
2401;BME280;1211;43.200;27.914;2023-04-20T05:35:26;100617.56;;;18.74;100.00
2401;BME280;1211;43.200;27.914;2023-04-20T05:37:52;100613.19;;;18.36;100.00
2401;BME280;1211;43.200;27.914;2023-04-20T05:40:20;100614.19;;;18.54;100.00
2401;BME280;1211;43.200;27.914;2023-04-20T05:42:47;100620.69;;;18.65;100.00
2401;BME280;1211;43.200;27.914;2023-04-20T05:45:14;100623.19;;;18.40;100.00
2401;BME280;1211;43.200;27.914;2023-04-20T05:47:40;100616.63;;;18.59;100.00
2401;BME280;1211;43.200;27.914;2023-04-20T05:50:07;100623.03;;;18.60;100.00
2401;BME280;1211;43.200;27.914;2023-04-20T05:52:34;100626.25;;;18.65;100.00
2401;BME280;1211;43.200;27.914;2023-04-20T05:55:01;100625.34;;;18.54;100.00
2401;BME280;1211;43.200;27.914;2023-04-20T05:57:29;100620.75;;;18.35;100.00
2401;BME280;1211;43.200;27.914;2023-04-20T05:59:56;100627.09;;;18.32;100.00
2401;BME280;1211;43.200;27.914;2023-04-20T06:02:22;100628.63;;;18.63;100.00
2401;BME280;1211;43.200;27.914;2023-04-20T06:04:49;100630.91;;;18.54;100.00
2401;BME280;1211;43.200;27.914;2023-04-20T06:07:16;100629.94;;;18.36;100.00
2401;BME280;1211;43.200;27.914;2023-04-20T06:09:42;100623.19;;;18.03;100.00
2401;BME280;1211;43.200;27.914;2023-04-20T06:12:09;100622.63;;;18.24;100.00
2401;BME280;1211;43.200;27.914;2023-04-20T06:14:37;100624.28;;;18.29;100.00
2401;BME280;1211;43.200;27.914;2023-04-20T06:17:04;100621.31;;;18.51;100.00
2401;BME280;1211;43.200;27.914;2023-04-20T06:19:30;100618.19;;;18.57;100.00
2401;BME280;1211;43.200;27.914;2023-04-20T06:21:57;100618.63;;;18.22;100.00
2401;BME280;1211;43.200;27.914;2023-04-20T06:24:23;100610.78;;;18.71;100.00
2401;BME280;1211;43.200;27.914;2023-04-20T06:26:52;100612.91;;;18.48;100.00
2401;BME280;1211;43.200;27.914;2023-04-20T06:29:18;100614.81;;;18.81;100.00
2401;BME280;1211;43.200;27.914;2023-04-20T06:31:47;100624.81;;;18.85;100.00
2401;BME280;1211;43.200;27.914;2023-04-20T06:34:13;100619.44;;;19.10;100.00
2401;BME280;1211;43.200;27.914;2023-04-20T06:36:41;100622.47;;;18.91;100.00
2401;BME280;1211;43.200;27.914;2023-04-20T06:39:07;100622.03;;;18.45;100.00
2401;BME280;1211;43.200;27.914;2023-04-20T06:41:35;100615.03;;;19.06;100.00
2401;BME280;1211;43.200;27.914;2023-04-20T06:44:02;100614.69;;;19.18;100.00
2401;BME280;1211;43.200;27.914;2023-04-20T06:46:29;100612.38;;;19.30;100.00
2401;BME280;1211;43.200;27.914;2023-04-20T06:48:57;100609.63;;;18.79;100.00
2401;BME280;1211;43.200;27.914;2023-04-20T06:51:24;100611.47;;;19.12;100.00
2401;BME280;1211;43.200;27.914;2023-04-20T06:53:51;100608.72;;;18.65;100.00
2401;BME280;1211;43.200;27.914;2023-04-20T06:56:18;100608.44;;;18.77;100.00
2401;BME280;1211;43.200;27.914;2023-04-20T06:58:46;100612.75;;;19.25;100.00
2401;BME280;1211;43.200;27.914;2023-04-20T07:01:13;100610.88;;;19.44;100.00
2401;BME280;1211;43.200;27.914;2023-04-20T07:03:40;100613.56;;;19.26;100.00
2401;BME280;1211;43.200;27.914;2023-04-20T07:06:09;100618.81;;;19.38;100.00
2401;BME280;1211;43.200;27.914;2023-04-20T07:08:37;100615.59;;;19.32;100.00
2401;BME280;1211;43.200;27.914;2023-04-20T07:11:04;100622.09;;;18.92;100.00
2401;BME280;1211;43.200;27.914;2023-04-20T07:13:30;100621.69;;;18.90;100.00
2401;BME280;1211;43.200;27.914;2023-04-20T07:15:57;100625.97;;;18.37;100.00
2401;BME280;1211;43.200;27.914;2023-04-20T07:18:24;100618.81;;;18.39;100.00
2401;BME280;1211;43.200;27.914;2023-04-20T07:20:50;100627.88;;;18.33;100.00
2401;BME280;1211;43.200;27.914;2023-04-20T07:23:19;100623.78;;;18.20;100.00
2401;BME280;1211;43.200;27.914;2023-04-20T07:25:45;100621.03;;;18.60;100.00
2401;BME280;1211;43.200;27.914;2023-04-20T07:28:12;100623.19;;;18.81;100.00
2401;BME280;1211;43.200;27.914;2023-04-20T07:30:39;100616.38;;;18.75;100.00
2401;BME280;1211;43.200;27.914;2023-04-20T07:33:05;100626.06;;;18.88;100.00
2401;BME280;1211;43.200;27.914;2023-04-20T07:35:32;100620.25;;;19.14;100.00
2401;BME280;1211;43.200;27.914;2023-04-20T07:37:59;100624.81;;;18.85;100.00
2401;BME280;1211;43.200;27.914;2023-04-20T07:40:27;100624.47;;;18.90;100.00
2401;BME280;1211;43.200;27.914;2023-04-20T07:42:53;100635.81;;;19.12;100.00
2401;BME280;1211;43.200;27.914;2023-04-20T07:45:20;100628.34;;;19.30;100.00
2401;BME280;1211;43.200;27.914;2023-04-20T07:47:48;100633.91;;;19.23;100.00
2401;BME280;1211;43.200;27.914;2023-04-20T07:50:15;100631.69;;;19.46;100.00
2401;BME280;1211;43.200;27.914;2023-04-20T07:52:42;100626.09;;;19.46;100.00
2401;BME280;1211;43.200;27.914;2023-04-20T07:55:09;100634.63;;;19.74;100.00
2401;BME280;1211;43.200;27.914;2023-04-20T07:57:39;100633.59;;;20.18;100.00
2401;BME280;1211;43.200;27.914;2023-04-20T08:00:07;100628.09;;;20.43;100.00
2401;BME280;1211;43.200;27.914;2023-04-20T08:02:34;100634.38;;;20.22;100.00
2401;BME280;1211;43.200;27.914;2023-04-20T08:05:00;100635.66;;;20.32;100.00
2401;BME280;1211;43.200;27.914;2023-04-20T08:07:27;100633.69;;;20.57;100.00
2401;BME280;1211;43.200;27.914;2023-04-20T08:09:54;100631.59;;;20.15;100.00
2401;BME280;1211;43.200;27.914;2023-04-20T08:12:21;100634.16;;;19.62;100.00
2401;BME280;1211;43.200;27.914;2023-04-20T08:14:49;100629.81;;;19.71;100.00
2401;BME280;1211;43.200;27.914;2023-04-20T08:17:15;100635.06;;;19.80;100.00
2401;BME280;1211;43.200;27.914;2023-04-20T08:19:42;100633.25;;;19.47;100.00
2401;BME280;1211;43.200;27.914;2023-04-20T08:22:08;100625.09;;;19.93;100.00
2401;BME280;1211;43.200;27.914;2023-04-20T08:24:37;100621.69;;;21.03;100.00
2401;BME280;1211;43.200;27.914;2023-04-20T08:27:04;100624.91;;;21.08;100.00
2401;BME280;1211;43.200;27.914;2023-04-20T08:29:30;100629.31;;;20.63;100.00
2401;BME280;1211;43.200;27.914;2023-04-20T08:31:59;100616.09;;;21.20;100.00
2401;BME280;1211;43.200;27.914;2023-04-20T08:34:25;100621.56;;;21.77;97.11
2401;BME280;1211;43.200;27.914;2023-04-20T08:36:52;100617.06;;;22.04;92.58
2401;BME280;1211;43.200;27.914;2023-04-20T08:39:19;100628.03;;;21.60;93.16
2401;BME280;1211;43.200;27.914;2023-04-20T08:41:48;100625.94;;;21.85;91.00
2401;BME280;1211;43.200;27.914;2023-04-20T08:44:17;100632.63;;;22.85;86.22
2401;BME280;1211;43.200;27.914;2023-04-20T08:46:45;100618.13;;;22.32;85.89
2401;BME280;1211;43.200;27.914;2023-04-20T08:49:14;100619.28;;;21.47;89.07
2401;BME280;1211;43.200;27.914;2023-04-20T08:51:41;100623.31;;;20.93;89.38
2401;BME280;1211;43.200;27.914;2023-04-20T08:54:08;100628.13;;;20.89;91.57
2401;BME280;1211;43.200;27.914;2023-04-20T08:56:36;100628.44;;;21.58;89.31
2401;BME280;1211;43.200;27.914;2023-04-20T08:59:03;100614.06;;;21.53;89.83
2401;BME280;1211;43.200;27.914;2023-04-20T09:01:33;100612.88;;;21.32;88.18
2401;BME280;1211;43.200;27.914;2023-04-20T09:04:00;100613.06;;;22.05;87.46
2401;BME280;1211;43.200;27.914;2023-04-20T09:06:28;100609.56;;;23.05;82.78
2401;BME280;1211;43.200;27.914;2023-04-20T09:08:55;100611.16;;;22.57;79.95
2401;BME280;1211;43.200;27.914;2023-04-20T09:11:22;100607.50;;;21.88;83.88
2401;BME280;1211;43.200;27.914;2023-04-20T09:13:59;100610.94;;;21.19;85.45
2401;BME280;1211;43.200;27.914;2023-04-20T09:16:26;100612.91;;;21.04;88.19
2401;BME280;1211;43.200;27.914;2023-04-20T09:18:52;100611.31;;;20.68;89.90
2401;BME280;1211;43.200;27.914;2023-04-20T09:21:20;100614.13;;;20.96;90.23
2401;BME280;1211;43.200;27.914;2023-04-20T09:23:55;100621.31;;;20.72;90.75
2401;BME280;1211;43.200;27.914;2023-04-20T09:26:22;100616.50;;;20.69;91.39
2401;BME280;1211;43.200;27.914;2023-04-20T09:28:49;100619.31;;;21.29;88.91
2401;BME280;1211;43.200;27.914;2023-04-20T09:31:16;100620.91;;;21.30;88.12
2401;BME280;1211;43.200;27.914;2023-04-20T09:33:43;100628.31;;;22.04;84.73
2401;BME280;1211;43.200;27.914;2023-04-20T09:36:09;100627.00;;;22.82;81.60
2401;BME280;1211;43.200;27.914;2023-04-20T09:38:37;100626.69;;;22.73;81.84
2401;BME280;1211;43.200;27.914;2023-04-20T09:41:05;100619.28;;;22.96;80.55
2401;BME280;1211;43.200;27.914;2023-04-20T09:43:32;100622.84;;;22.45;81.49
2401;BME280;1211;43.200;27.914;2023-04-20T09:46:01;100623.59;;;21.66;83.18
2401;BME280;1211;43.200;27.914;2023-04-20T09:48:28;100616.88;;;21.31;86.61
2401;BME280;1211;43.200;27.914;2023-04-20T09:50:55;100632.75;;;21.88;86.61
2401;BME280;1211;43.200;27.914;2023-04-20T09:53:21;100625.88;;;22.06;85.67
2401;BME280;1211;43.200;27.914;2023-04-20T09:55:48;100618.50;;;24.05;77.18
2401;BME280;1211;43.200;27.914;2023-04-20T09:58:18;100625.22;;;22.47;81.54
2401;BME280;1211;43.200;27.914;2023-04-20T10:00:45;100637.16;;;21.85;82.84
2401;BME280;1211;43.200;27.914;2023-04-20T10:03:14;100630.44;;;21.54;83.91
2401;BME280;1211;43.200;27.914;2023-04-20T10:05:41;100634.47;;;21.57;85.63
2401;BME280;1211;43.200;27.914;2023-04-20T10:08:08;100632.13;;;22.39;82.40
2401;BME280;1211;43.200;27.914;2023-04-20T10:10:44;100634.78;;;25.01;73.56
2401;BME280;1211;43.200;27.914;2023-04-20T10:13:11;100640.88;;;26.05;66.05
2401;BME280;1211;43.200;27.914;2023-04-20T10:15:40;100632.47;;;25.19;67.28
2401;BME280;1211;43.200;27.914;2023-04-20T10:18:14;100643.13;;;24.58;68.61
2401;BME280;1211;43.200;27.914;2023-04-20T10:20:41;100635.63;;;24.17;69.65
2401;BME280;1211;43.200;27.914;2023-04-20T10:23:08;100634.03;;;24.16;69.18
2401;BME280;1211;43.200;27.914;2023-04-20T10:25:35;100632.75;;;24.51;68.71
2401;BME280;1211;43.200;27.914;2023-04-20T10:28:03;100635.97;;;24.23;70.30
2401;BME280;1211;43.200;27.914;2023-04-20T10:30:32;100637.91;;;23.62;70.15
2401;BME280;1211;43.200;27.914;2023-04-20T10:33:05;100628.91;;;22.37;74.75
2401;BME280;1211;43.200;27.914;2023-04-20T10:35:41;100633.84;;;22.15;77.92
2401;BME280;1211;43.200;27.914;2023-04-20T10:38:08;100633.50;;;22.02;76.24
2401;BME280;1211;43.200;27.914;2023-04-20T10:40:35;100636.72;;;21.90;77.85
2401;BME280;1211;43.200;27.914;2023-04-20T10:43:02;100638.47;;;21.52;79.43
2401;BME280;1211;43.200;27.914;2023-04-20T10:45:34;100634.84;;;21.59;79.60
2401;BME280;1211;43.200;27.914;2023-04-20T10:48:07;100629.56;;;21.78;79.12
2401;BME280;1211;43.200;27.914;2023-04-20T10:50:34;100643.66;;;22.51;78.46
2401;BME280;1211;43.200;27.914;2023-04-20T10:53:01;100635.63;;;22.57;77.27
2401;BME280;1211;43.200;27.914;2023-04-20T10:55:28;100626.94;;;23.33;73.91
2401;BME280;1211;43.200;27.914;2023-04-20T10:57:54;100635.44;;;22.85;75.05
2401;BME280;1211;43.200;27.914;2023-04-20T11:00:22;100651.66;;;22.56;76.32
2401;BME280;1211;43.200;27.914;2023-04-20T11:02:50;100644.91;;;23.02;75.58
2401;BME280;1211;43.200;27.914;2023-04-20T11:05:18;100650.56;;;23.43;74.40
2401;BME280;1211;43.200;27.914;2023-04-20T11:07:46;100645.56;;;22.72;76.12
2401;BME280;1211;43.200;27.914;2023-04-20T11:10:12;100643.63;;;22.55;75.47
2401;BME280;1211;43.200;27.914;2023-04-20T11:12:39;100646.19;;;22.32;76.09
2401;BME280;1211;43.200;27.914;2023-04-20T11:15:06;100647.66;;;22.54;74.36
2401;BME280;1211;43.200;27.914;2023-04-20T11:17:35;100637.13;;;22.72;74.53
2401;BME280;1211;43.200;27.914;2023-04-20T11:20:05;100642.56;;;22.93;73.39
2401;BME280;1211;43.200;27.914;2023-04-20T11:22:36;100644.00;;;23.12;70.27
2401;BME280;1211;43.200;27.914;2023-04-20T11:25:04;100629.88;;;22.71;71.30
2401;BME280;1211;43.200;27.914;2023-04-20T11:27:31;100638.97;;;23.37;69.66
2401;BME280;1211;43.200;27.914;2023-04-20T11:29:57;100637.13;;;22.72;71.70
2401;BME280;1211;43.200;27.914;2023-04-20T11:32:28;100615.00;;;23.26;70.47
2401;BME280;1211;43.200;27.914;2023-04-20T11:34:58;100622.50;;;23.73;69.30
2401;BME280;1211;43.200;27.914;2023-04-20T11:37:25;100625.31;;;23.36;69.68
2401;BME280;1211;43.200;27.914;2023-04-20T11:40:00;100617.88;;;24.24;68.05
2401;BME280;1211;43.200;27.914;2023-04-20T11:42:28;100618.66;;;24.51;67.95
2401;BME280;1211;43.200;27.914;2023-04-20T11:44:55;100630.97;;;25.11;65.47
2401;BME280;1211;43.200;27.914;2023-04-20T11:47:22;100622.06;;;24.09;65.76
2401;BME280;1211;43.200;27.914;2023-04-20T11:49:48;100618.16;;;23.28;67.83
2401;BME280;1211;43.200;27.914;2023-04-20T11:52:15;100615.13;;;23.87;66.67
2401;BME280;1211;43.200;27.914;2023-04-20T11:54:41;100617.28;;;22.93;69.88
2401;BME280;1211;43.200;27.914;2023-04-20T11:57:10;100611.59;;;22.49;71.78
2401;BME280;1211;43.200;27.914;2023-04-20T11:59:36;100607.34;;;22.85;71.76
2401;BME280;1211;43.200;27.914;2023-04-20T12:02:03;100605.09;;;22.59;72.45
2401;BME280;1211;43.200;27.914;2023-04-20T12:04:30;100625.41;;;22.18;72.14
2401;BME280;1211;43.200;27.914;2023-04-20T12:06:57;100614.47;;;22.38;72.16
2401;BME280;1211;43.200;27.914;2023-04-20T12:09:23;100619.38;;;22.82;71.60
2401;BME280;1211;43.200;27.914;2023-04-20T12:11:50;100609.50;;;23.12;69.70
2401;BME280;1211;43.200;27.914;2023-04-20T12:14:18;100621.72;;;22.91;70.41
2401;BME280;1211;43.200;27.914;2023-04-20T12:16:45;100611.34;;;22.84;70.69
2401;BME280;1211;43.200;27.914;2023-04-20T12:19:12;100618.19;;;22.21;72.40
2401;BME280;1211;43.200;27.914;2023-04-20T12:21:38;100633.44;;;22.16;71.77
2401;BME280;1211;43.200;27.914;2023-04-20T12:24:05;100628.56;;;22.28;71.86
2401;BME280;1211;43.200;27.914;2023-04-20T12:26:32;100625.88;;;22.72;70.85
2401;BME280;1211;43.200;27.914;2023-04-20T12:29:00;100624.31;;;22.68;70.64
2401;BME280;1211;43.200;27.914;2023-04-20T12:31:28;100628.28;;;22.11;72.13
2401;BME280;1211;43.200;27.914;2023-04-20T12:33:55;100628.00;;;21.74;73.88
2401;BME280;1211;43.200;27.914;2023-04-20T12:36:21;100636.63;;;22.22;73.17
2401;BME280;1211;43.200;27.914;2023-04-20T12:38:49;100628.16;;;22.33;72.32
2401;BME280;1211;43.200;27.914;2023-04-20T12:41:16;100631.50;;;22.72;71.74
2401;BME280;1211;43.200;27.914;2023-04-20T12:43:42;100615.38;;;22.83;70.13
2401;BME280;1211;43.200;27.914;2023-04-20T12:46:09;100617.72;;;22.88;69.77
2401;BME280;1211;43.200;27.914;2023-04-20T12:48:37;100607.75;;;23.25;68.61
2401;BME280;1211;43.200;27.914;2023-04-20T12:51:04;100618.22;;;22.76;69.86
2401;BME280;1211;43.200;27.914;2023-04-20T12:53:30;100621.91;;;22.66;70.80